ADDS METAR Data INFO
IDs: Format: Raw Decoded Include TAF

Data at: 2348 UTC 24 Feb 2018

KLZZ 242335Z AUTO 36009G15KT 10SM CLR 21/13 A2986 RMK AO2 LTG DSNT E T02120125
KLZZ 242315Z AUTO 36009G16KT 10SM CLR 23/14 A2985 RMK AO2 T02280137
KLZZ 242255Z AUTO 32008KT 290V360 10SM CLR 25/12 A2983 RMK AO2 T02530117
KLZZ 242235Z AUTO 35007KT 10SM CLR 25/12 A2982 RMK AO2 T02540120
KLZZ 242215Z AUTO 33006KT 10SM SCT050 SCT075 BKN100 26/14 A2982 RMK AO2 T02560137
KLZZ 242155Z AUTO 33005KT 10SM BKN055 BKN080 BKN090 24/14 A2982 RMK AO2 T02400141
KLZZ 242135Z AUTO 23003KT 10SM SCT090 25/17 A2981 RMK AO2 T02450165
KLZZ 242115Z AUTO 23005KT 10SM SCT037 SCT044 SCT065 25/17 A2981 RMK AO2 T02460168
KLZZ 242055Z AUTO 21007KT 10SM SCT037 SCT044 BKN050 25/17 A2981 RMK AO2 T02460167
KLZZ 242035Z AUTO 21007KT 10SM SCT033 SCT041 BKN055 25/17 A2982 RMK AO2 T02470172
KLZZ 242015Z AUTO 23006G14KT 10SM SCT036 SCT048 SCT055 24/17 A2983 RMK AO2 T02430169
KLZZ 241955Z AUTO 23008G15KT 200V270 10SM SCT055 SCT070 25/17 A2984 RMK AO2 T02480171
KLZZ 241935Z AUTO 23008G14KT 10SM SCT035 SCT050 24/17 A2984 RMK AO2 T02430170
KLZZ 241915Z AUTO 23007G16KT 10SM SCT025 SCT031 SCT039 25/17 A2984 RMK AO2 T02450173
KLZZ 241855Z AUTO 22009G16KT 10SM SCT027 BKN032 BKN050 24/18 A2986 RMK AO2 T02420181
KLZZ 241835Z AUTO 21009G16KT 10SM SCT027 SCT031 SCT048 24/18 A2986 RMK AO2 T02380182
KLZZ 241815Z AUTO 23009G14KT 200V260 10SM CLR 23/19 A2987 RMK AO2 T02340186
KLZZ 241755Z AUTO 21010G15KT 10SM CLR 23/19 A2988 RMK AO2 60005 T02260187 10226 20172
KLZZ 241735Z AUTO 23013G20KT 10SM CLR 22/19 A2988 RMK AO2 T02210187
KLZZ 241715Z AUTO 22012G18KT 10SM SCT015 22/19 A2987 RMK AO2 T02220190
KLZZ 241655Z AUTO 22013G17KT 10SM CLR 21/19 A2987 RMK AO2 T02120188
KLZZ 241635Z AUTO 21013G16KT 7SM SCT019 SCT025 21/19 A2987 RMK AO2 T02060189
KLZZ 241615Z AUTO 21008KT 7SM BKN017 OVC025 20/19 A2987 RMK AO2 T02020190
KLZZ 241555Z AUTO 21007KT 4SM DZ OVC017 20/19 A2987 RMK AO2 T01950187
KLZZ 241535Z AUTO 22008KT 7SM OVC015 19/18 A2988 RMK AO2 T01930182
KLZZ 241515Z AUTO 20008G14KT 7SM OVC015 19/18 A2987 RMK AO2 LTG DSNT NE T01930183
KLZZ 241455Z AUTO 20009G15KT 7SM OVC015 19/18 A2986 RMK AO2 60005 T01920183
KLZZ 241435Z AUTO 18010KT 5SM BR OVC013 19/18 A2984 RMK AO2 T01900182
KLZZ 241415Z AUTO 17009KT 5SM BR OVC013 19/18 A2984 RMK AO2 T01880183
KLZZ 241355Z AUTO 18007KT 5SM BR OVC015 19/18 A2985 RMK AO2 P0001 T01870182
KLZZ 241335Z AUTO 18008KT 5SM BR OVC015 19/18 A2985 RMK AO2 T01850181
KLZZ 241315Z AUTO 17007KT 7SM BKN019 OVC110 19/18 A2984 RMK AO2 T01850181
KLZZ 241255Z AUTO 16013KT 7SM RA SCT025 SCT060 OVC110 18/18 A2983 RMK AO2 P0004 T01820181
KLZZ 241235Z AUTO 16008KT 5SM -RA BKN016 BKN032 OVC110 18/18 A2985 RMK AO2 LTG DSNT NE P0003 T01820182
KLZZ 241215Z AUTO 21006KT 2 1/2SM VCTSRA BKN010 OVC016 18/18 A2988 RMK AO2 LTG DSNT NW THRU NE P0002 T01780178
KLZZ 241155Z AUTO 22004KT 2SM RA OVC010 17/17 A2988 RMK AO2 LTG DSNT SE AND W P0001 60001 70002 T01710171 10171 20136
KLZZ 241135Z AUTO 14003KT 2SM -RA OVC010 17/17 A2984 RMK AO2 LTG DSNT N T01670167
KLZZ 241115Z AUTO 00000KT 3/4SM BR OVC009 16/16 A2985 RMK AO2 T01620162
KLZZ 241055Z AUTO 00000KT 3/4SM BR OVC009 16/16 A2985 RMK AO2 T01580158
KLZZ 241035Z AUTO 13003KT 1 1/4SM BR SCT002 OVC009 16/16 A2987 RMK AO2 T01560156
KLZZ 241015Z AUTO 14003KT 1/4SM -DZ OVC002 15/15 A2988 RMK AO2 T01500150
KLZZ 240955Z AUTO 14003KT 1/4SM -DZ OVC002 15/15 A2988 RMK AO2 LTG DSNT W T01450145
KLZZ 240935Z AUTO 00000KT 1/4SM RA OVC002 15/15 A2989 RMK AO2 LTG DSNT W T01460146
KLZZ 240915Z AUTO 00000KT 1/4SM -RA OVC002 15/15 A2989 RMK AO2 T01450145
KLZZ 240855Z AUTO 11005KT 1/4SM FG OVC002 14/14 A2990 RMK AO2 T01410141
KLZZ 240835Z AUTO 08003KT 1/4SM FG OVC002 14/14 A2992 RMK AO2 T01370137
KLZZ 240815Z AUTO 00000KT 1/4SM FG OVC002 14/14 A2995 RMK AO2 T01370137
KLZZ 240755Z AUTO 00000KT 1/4SM FG OVC002 14/14 A2995 RMK AO2 T01360136
KLZZ 240735Z AUTO 00000KT 1/4SM FG OVC002 14/14 A2996 RMK AO2 T01370137
KLZZ 240715Z AUTO 00000KT 1/4SM FG OVC002 14/14 A2997 RMK AO2 T01370137
KLZZ 240655Z AUTO 00000KT 1/4SM FG OVC002 14/14 A2997 RMK AO2 T01400138
KLZZ 240635Z AUTO 00000KT 1/4SM FG OVC002 14/14 A2996 RMK AO2 T01380137
KLZZ 240615Z AUTO 00000KT 1/4SM FG OVC002 14/14 A2997 RMK AO2 T01370137
KLZZ 240555Z AUTO 00000KT 1/4SM FG OVC002 14/14 A2998 RMK AO2 T01370136 10140 20131 401400036
KLZZ 240535Z AUTO 14003KT 1/4SM FG OVC002 14/14 A2999 RMK AO2 T01370137
KLZZ 240515Z AUTO 12005KT 1/4SM FG OVC002 14/14 A2999 RMK AO2 T01380138
KLZZ 240455Z AUTO 12003KT 1/4SM DZ OVC002 14/14 A3000 RMK AO2 T01350135
KLZZ 240435Z AUTO 00000KT 1/2SM FG OVC002 13/13 A3001 RMK AO2 T01340133
KLZZ 240415Z AUTO 00000KT 1/2SM FG OVC002 14/14 A3002 RMK AO2 T01370137
KLZZ 240355Z AUTO 00000KT 1 1/4SM BR OVC002 14/14 A3001 RMK AO2 T01360135
KLZZ 240335Z AUTO 00000KT 1 1/2SM BR OVC002 14/14 A3001 RMK AO2 T01360135
KLZZ 240315Z AUTO 00000KT 3/4SM -RA OVC004 14/14 A3002 RMK AO2 T01360136
KLZZ 240255Z AUTO 00000KT 3/4SM BR OVC004 14/14 A3001 RMK AO2 T01370136
KLZZ 240235Z AUTO 00000KT 2SM BR OVC004 14/14 A3002 RMK AO2 T01380138
KLZZ 240215Z AUTO 00000KT 1/2SM FG OVC002 14/14 A3001 RMK AO2 T01380137
KLZZ 240155Z AUTO 00000KT 1/4SM FG OVC002 14/14 A3002 RMK AO2 T01380137
KLZZ 240135Z AUTO 00000KT 1/4SM FG OVC002 14/14 A3002 RMK AO2 T01380137
KLZZ 240115Z AUTO 00000KT 1/4SM FG OVC002 14/14 A3001 RMK AO2 T01390138
KLZZ 240055Z AUTO 00000KT 1/4SM FG OVC002 14/14 A3000 RMK AO2 T01380137
KLZZ 240035Z AUTO 00000KT M1/4SM FG OVC002 14/14 A3000 RMK AO2 T01370136
KLZZ 240015Z AUTO 00000KT M1/4SM FG OVC002 13/13 A3001 RMK AO2 T01320132
KLZZ 232355Z AUTO 00000KT M1/4SM FG OVC002 13/13 A3000 RMK AO2 T01310130 10131 20085
KLZZ 232335Z AUTO 13003KT M1/4SM FG OVC002 13/13 A3000 RMK AO2 T01300128
KLZZ 232315Z AUTO 11003KT M1/4SM FG OVC002 13/13 A3001 RMK AO2 T01270126
KLZZ 232255Z AUTO 00000KT M1/4SM FG OVC002 13/13 A3001 RMK AO2 LTG DSNT N T01260125
KLZZ 232235Z AUTO 11003KT 1/4SM FG OVC002 13/13 A3002 RMK AO2 T01280126
KLZZ 232215Z AUTO 11004KT 1/4SM FG OVC002 13/13 A3002 RMK AO2 T01280126
KLZZ 232055Z AUTO 12003KT 1 1/2SM BR OVC002 12/11 A3004 RMK AO2 T01180114
KLZZ 232035Z AUTO 12005KT 3/4SM BR OVC002 12/11 A3004 RMK AO2 T01150111
KLZZ 232015Z AUTO 12004KT 1/2SM FG OVC002 11/11 A3006 RMK AO2 T01100107
KLZZ 231955Z AUTO 14004KT 1/4SM FG OVC002 11/10 A3007 RMK AO2 LTG DSNT N T01050102
KLZZ 231935Z AUTO 13005KT 1/2SM FG OVC002 11/10 A3008 RMK AO2 T01050100
KLZZ 231915Z AUTO 00000KT 1/2SM FG OVC002 10/10 A3010 RMK AO2 T01000097
KLZZ 231855Z AUTO 12003KT 1/2SM FG OVC002 10/09 A3011 RMK AO2 T00950092
KLZZ 231835Z AUTO 12003KT 3/4SM BR OVC002 09/09 A3012 RMK AO2 T00900088
KLZZ 231815Z AUTO 00000KT 3/4SM BR OVC002 09/08 A3013 RMK AO2 T00860083
KLZZ 231755Z AUTO 12004KT 2 1/2SM BR OVC002 09/08 A3014 RMK AO2 VIS 2V3 60001 T00850081 10086 20042
KLZZ 231735Z AUTO 09003KT 4SM RA OVC004 08/08 A3015 RMK AO2 T00820077
KLZZ 231715Z AUTO 09003KT 10SM OVC004 08/08 A3015 RMK AO2 T00820075
KLZZ 231655Z AUTO 00000KT 10SM OVC004 08/07 A3015 RMK AO2 T00780072
KLZZ 231635Z AUTO 08003KT 10SM OVC004 08/07 A3015 RMK AO2 T00750070
KLZZ 231615Z AUTO 00000KT 7SM OVC004 07/07 A3016 RMK AO2 T00730070
KLZZ 231555Z AUTO 05003KT 3SM BR OVC004 07/07 A3016 RMK AO2 T00680065
KLZZ 231535Z AUTO 05004KT 4SM BR OVC004 07/06 A3017 RMK AO2 T00650062
KLZZ 231515Z AUTO 02003KT 5SM BR BKN002 OVC007 07/06 A3018 RMK AO2 T00650061
KLZZ 231455Z AUTO 00000KT 5SM BR BKN002 OVC008 06/06 A3019 RMK AO2 LTG DSNT NW P0001 60001 T00600057
KLZZ 231435Z AUTO 04005KT 4SM BR BKN002 OVC008 06/06 A3017 RMK AO2 LTG DSNT N T00580056
KLZZ 231415Z AUTO 03003KT 1 3/4SM BR OVC002 06/05 A3017 RMK AO2 T00550053
KLZZ 231355Z AUTO 00000KT 1 1/4SM BR OVC002 05/05 A3017 RMK AO2 T00530052
KLZZ 231335Z AUTO 03004KT 3/4SM BR OVC004 05/05 A3017 RMK AO2 T00520051
KLZZ 231315Z AUTO 00000KT 1SM BR OVC002 05/05 A3017 RMK AO2 T00510050
KLZZ 231255Z AUTO 00000KT 1 1/2SM BR OVC002 05/05 A3017 RMK AO2 T00510050
KLZZ 231235Z AUTO 00000KT 1 1/4SM BR OVC002 05/05 A3017 RMK AO2 LTG DSNT SE T00460045
KLZZ 231215Z AUTO 11007KT 3/4SM BR OVC002 04/04 A3010 RMK AO2 T00430042
KLZZ 231155Z AUTO 10005KT 1SM BR OVC002 04/04 A3011 RMK AO2 LTG DSNT SE 70001 T00420041 10042 20036